This is the latest recevied weather packets stored in our database for station/object DO7ZT-13. If no packets are shown the sender has not sent any weather packets the latest 10 day(s).
| Time | Temp. | Humidity | Pressure | Rain* | Wind** | Luminosity | Snow |
|---|---|---|---|---|---|---|---|
| 1778030713 | 12.22° C | 96% | 1005.2 hPa | 1.27 mm | 0.89 m/s, 138° | - | - |
| 1778030426 | 12.22° C | 96% | 1005.2 hPa | 1.78 mm | 0.45 m/s, 140° | - | - |
| 1778030113 | 12.22° C | 95% | 1005.2 hPa | 2.03 mm | 0.45 m/s, 126° | - | - |
| 1778029826 | 12.22° C | 96% | 1005.2 hPa | 2.54 mm | 0.45 m/s, 138° | - | - |
| 1778029513 | 12.22° C | 95% | 1005.2 hPa | 2.03 mm | 0.89 m/s, 138° | - | - |
| 1778029226 | 12.22° C | 95% | 1005.3 hPa | 2.03 mm | 0.89 m/s, 132° | - | - |
| 1778028913 | 12.22° C | 95% | 1005.3 hPa | 2.54 mm | 0.45 m/s, 120° | - | - |
| 1778028625 | 12.22° C | 95% | 1005.3 hPa | 2.54 mm | 0.45 m/s, 90° | - | - |
| 1778028313 | 12.22° C | 94% | 1005.4 hPa | 2.03 mm | 0.89 m/s, 96° | - | - |
| 1778028025 | 12.22° C | 95% | 1005.4 hPa | 2.03 mm | 0.89 m/s, 66° | - | - |
| 1778027713 | 12.22° C | 96% | 1005.4 hPa | 1.78 mm | 0.45 m/s, 71° | - | - |
| 1778027426 | 12.22° C | 96% | 1005.6 hPa | 1.78 mm | 0 m/s | - | - |
| 1778027113 | 12.22° C | 98% | 1005.6 hPa | 1.27 mm | 0.45 m/s, 60° | - | - |
| 1778026838 | 12.22° C | 98% | 1005.6 hPa | 1.02 mm | 0.45 m/s, 54° | - | - |
| 1778026525 | 12.22° C | 98% | 1006.2 hPa | 1.27 mm | 0 m/s | - | - |
| 1778026213 | 12.22° C | 98% | 1006.2 hPa | 2.03 mm | 0.45 m/s, 120° | - | - |
| 1778025925 | 12.22° C | 98% | 1006.2 hPa | 3.81 mm | 0 m/s | - | - |
| 1778025638 | 12.22° C | 98% | 1006.1 hPa | 3.3 mm | 0 m/s | - | - |
| 1778025325 | 12.22° C | 98% | 1006.1 hPa | 4.83 mm | 0 m/s | - | - |
| 1778025013 | 12.22° C | 97% | 1006.1 hPa | 5.59 mm | 0 m/s | - | - |
| 1778024725 | 12.22° C | 97% | 1006.4 hPa | 6.1 mm | 0.45 m/s, 342° | - | - |
| 1778024413 | 12.22° C | 97% | 1006.4 hPa | 6.1 mm | 0.89 m/s, 336° | - | - |
| 1778024125 | 12.22° C | 96% | 1006.4 hPa | 6.1 mm | 0.45 m/s, 354° | - | - |
| 1778023813 | 12.22° C | 95% | 1007 hPa | 6.1 mm | 0.45 m/s, 312° | - | - |
| 1778023526 | 12.22° C | 95% | 1007 hPa | 6.1 mm | 0 m/s | - | - |
* Rain latest hour (hover to see other rain measurements)
** Current wind speed in m/s (hover to see current wind gust speed)